createdAt,value
2022-11-28T00:02:05.499Z,24.17
2022-11-28T00:04:32.870Z,23.42
2022-11-28T00:07:00.685Z,23.15
2022-11-28T00:09:28.389Z,24.75
2022-11-28T00:11:56.260Z,25.13
2022-11-28T00:14:23.666Z,23.75
2022-11-28T00:16:51.450Z,24.48
2022-11-28T00:19:19.235Z,24.00
2022-11-28T00:21:47.087Z,25.80
2022-11-28T00:24:14.487Z,24.92
2022-11-28T00:26:42.962Z,25.27
2022-11-28T00:29:11.795Z,27.92
2022-11-28T00:31:43.113Z,25.30
2022-11-28T00:34:13.645Z,23.73
2022-11-28T00:36:45.443Z,22.65
2022-11-28T00:39:14.745Z,22.67
2022-11-28T00:41:43.458Z,22.88
2022-11-28T00:44:11.532Z,21.27
2022-11-28T00:46:39.305Z,23.55
2022-11-28T00:49:07.307Z,23.33
2022-11-28T00:51:35.344Z,23.65
2022-11-28T00:54:04.932Z,23.98
2022-11-28T00:56:38.399Z,20.95
2022-11-28T00:59:07.553Z,22.48
2022-11-28T01:01:41.020Z,22.98
2022-11-28T01:04:11.333Z,22.23
2022-11-28T01:06:45.939Z,21.42
2022-11-28T01:09:22.404Z,21.90
2022-11-28T01:11:52.960Z,20.75
2022-11-28T01:14:22.339Z,22.52
2022-11-28T01:16:50.341Z,22.95
2022-11-28T01:19:18.175Z,23.10
2022-11-28T01:21:45.729Z,24.52
2022-11-28T01:24:13.646Z,24.38
2022-11-28T01:26:43.525Z,25.08
2022-11-28T01:29:11.451Z,23.58
2022-11-28T01:31:39.764Z,23.60
2022-11-28T01:34:07.425Z,24.10
2022-11-28T01:36:35.125Z,22.55
2022-11-28T01:39:03.075Z,22.50
2022-11-28T01:41:30.777Z,22.42
2022-11-28T01:44:06.616Z,24.10
2022-11-28T01:46:35.543Z,21.90
2022-11-28T01:49:27.363Z,22.73
2022-11-28T01:52:01.104Z,21.25
2022-11-28T01:54:30.038Z,22.95
2022-11-28T01:57:02.572Z,21.63
2022-11-28T01:59:39.124Z,21.95
2022-11-28T02:02:12.105Z,22.00
2022-11-28T02:04:39.858Z,23.67
2022-11-28T02:07:07.649Z,22.65
2022-11-28T02:09:35.492Z,24.13
2022-11-28T02:12:09.167Z,21.92
2022-11-28T02:15:05.550Z,23.38
2022-11-28T02:17:56.644Z,25.00
2022-11-28T02:20:37.925Z,22.90
2022-11-28T02:23:14.502Z,24.90
2022-11-28T02:25:59.061Z,25.13
2022-11-28T02:28:41.724Z,24.13
2022-11-28T02:31:12.043Z,25.38
2022-11-28T02:33:50.811Z,27.95
2022-11-28T02:36:44.428Z,26.75
2022-11-28T02:39:33.990Z,26.63
2022-11-28T02:42:12.192Z,26.02
2022-11-28T02:44:44.983Z,25.80
2022-11-28T02:47:30.594Z,26.08
2022-11-28T02:50:08.365Z,26.38
2022-11-28T02:53:10.485Z,23.35
2022-11-28T02:55:40.877Z,23.55
2022-11-28T02:58:11.524Z,24.27
2022-11-28T03:00:44.036Z,22.30
2022-11-28T03:03:24.666Z,22.90
2022-11-28T03:06:01.844Z,22.25
2022-11-28T03:08:57.313Z,23.98
2022-11-28T03:11:34.205Z,21.65
2022-11-28T03:14:20.891Z,23.08
2022-11-28T03:17:13.583Z,22.88
2022-11-28T03:19:48.503Z,22.60
2022-11-28T03:22:42.035Z,22.52
2022-11-28T03:25:37.980Z,23.73
2022-11-28T03:28:19.544Z,23.70
2022-11-28T03:31:13.951Z,24.85
2022-11-28T03:33:57.070Z,21.92
2022-11-28T03:36:32.159Z,20.77
2022-11-28T03:39:11.638Z,21.50
2022-11-28T03:41:44.076Z,21.08
2022-11-28T03:44:17.348Z,20.88
2022-11-28T03:46:49.172Z,21.50
2022-11-28T03:49:24.426Z,22.10
2022-11-28T03:52:16.363Z,20.05
2022-11-28T03:54:52.025Z,23.02
2022-11-28T03:57:31.417Z,22.98
2022-11-28T04:00:02.501Z,21.95
2022-11-28T04:02:44.018Z,21.98
2022-11-28T04:05:40.767Z,19.67
2022-11-28T04:08:24.556Z,19.00
2022-11-28T04:11:15.661Z,21.02
2022-11-28T04:13:57.844Z,20.52
2022-11-28T04:16:50.560Z,17.58
2022-11-28T04:19:43.503Z,19.83
2022-11-28T04:22:20.088Z,19.27
2022-11-28T04:24:57.704Z,19.98
2022-11-28T04:27:37.888Z,18.55
2022-11-28T04:30:13.488Z,17.85
2022-11-28T04:32:48.247Z,18.92
2022-11-28T04:35:34.127Z,19.20
2022-11-28T04:38:04.509Z,18.92
2022-11-28T04:40:37.461Z,18.35
2022-11-28T04:43:10.745Z,18.33
2022-11-28T04:45:55.019Z,17.95
2022-11-28T04:48:23.202Z,18.40
2022-11-28T04:51:06.966Z,18.90
2022-11-28T04:53:43.805Z,18.30
2022-11-28T04:56:24.102Z,18.35
2022-11-28T04:58:52.058Z,17.13
2022-11-28T05:01:25.803Z,18.25
2022-11-28T05:03:55.251Z,17.63
2022-11-28T05:06:31.521Z,16.67
2022-11-28T05:08:59.785Z,15.57
2022-11-28T05:11:27.465Z,18.05
2022-11-28T05:13:56.577Z,16.77
2022-11-28T05:16:24.647Z,19.27
2022-11-28T05:18:52.711Z,18.45
2022-11-28T05:21:20.813Z,18.38
2022-11-28T05:23:48.821Z,17.58
2022-11-28T05:26:21.430Z,17.83
2022-11-28T05:28:51.089Z,16.08
2022-11-28T05:31:21.265Z,18.45
2022-11-28T05:33:49.648Z,19.00
2022-11-28T05:36:18.395Z,17.33
2022-11-28T05:38:46.445Z,16.85
2022-11-28T05:41:25.975Z,18.17
2022-11-28T05:43:54.239Z,15.98
2022-11-28T05:46:21.877Z,16.38
2022-11-28T05:48:49.885Z,18.90
2022-11-28T05:51:17.970Z,18.67
2022-11-28T05:53:46.133Z,17.08
2022-11-28T05:56:17.086Z,17.50
2022-11-28T05:58:45.677Z,16.50
2022-11-28T06:01:20.621Z,18.17
2022-11-28T06:03:48.429Z,17.70
2022-11-28T06:06:18.291Z,21.60
2022-11-28T06:08:47.505Z,18.58
2022-11-28T06:11:16.535Z,17.25
2022-11-28T06:13:45.678Z,19.38
2022-11-28T06:16:22.013Z,19.80
2022-11-28T06:18:54.096Z,18.30
2022-11-28T06:21:22.157Z,17.13
2022-11-28T06:23:50.675Z,18.38
2022-11-28T06:26:20.470Z,15.88
2022-11-28T06:28:49.132Z,17.83
2022-11-28T06:31:21.950Z,19.35
2022-11-28T06:33:50.542Z,18.63
2022-11-28T06:36:19.250Z,18.95
2022-11-28T06:38:47.950Z,18.85
2022-11-28T06:41:18.697Z,17.92
2022-11-28T06:43:46.871Z,18.10
2022-11-28T06:46:16.931Z,17.70
2022-11-28T06:48:46.296Z,17.60
2022-11-28T06:51:14.522Z,17.65
2022-11-28T06:53:43.408Z,18.50
2022-11-28T06:56:14.375Z,18.20
2022-11-28T06:58:43.330Z,18.42
2022-11-28T07:01:19.951Z,17.35
2022-11-28T07:03:48.845Z,18.10
2022-11-28T07:06:19.440Z,18.05
2022-11-28T07:08:47.891Z,18.58
2022-11-28T07:11:24.404Z,17.27
2022-11-28T07:13:53.257Z,17.05
2022-11-28T07:16:26.383Z,18.33
2022-11-28T07:18:54.886Z,17.88
2022-11-28T07:21:22.601Z,16.25
2022-11-28T07:23:50.958Z,17.52
2022-11-28T07:26:20.115Z,18.58
2022-11-28T07:28:49.243Z,16.58
2022-11-28T07:31:19.526Z,15.75
2022-11-28T07:33:50.334Z,17.45
2022-11-28T07:36:24.225Z,17.23
2022-11-28T07:38:54.781Z,16.88
2022-11-28T07:41:26.480Z,17.02
2022-11-28T07:43:58.075Z,15.25
2022-11-28T07:46:26.501Z,17.38
2022-11-28T07:48:54.665Z,16.92
2022-11-28T07:51:24.726Z,16.42
2022-11-28T07:53:53.037Z,17.33
2022-11-28T07:56:25.154Z,16.30
2022-11-28T07:58:53.134Z,14.80
2022-11-28T08:01:23.307Z,16.45
2022-11-28T08:03:52.311Z,18.38
2022-11-28T08:06:23.112Z,19.02
2022-11-28T08:08:51.906Z,15.85
2022-11-28T08:11:21.488Z,18.77
2022-11-28T08:13:54.971Z,17.05
2022-11-28T08:16:27.294Z,19.00
2022-11-28T08:18:55.962Z,18.67
2022-11-28T08:21:26.174Z,20.08
2022-11-28T08:23:55.632Z,18.38
2022-11-28T08:26:28.920Z,19.73
2022-11-28T08:28:56.976Z,20.77
2022-11-28T08:31:33.742Z,20.33
2022-11-28T08:34:03.726Z,20.15
2022-11-28T08:36:34.283Z,21.13
2022-11-28T08:41:51.813Z,20.35
2022-11-28T08:44:19.415Z,20.17
2022-11-28T08:46:46.721Z,17.35
2022-11-28T08:49:16.660Z,19.48
2022-11-28T08:51:44.229Z,18.23
2022-11-28T08:54:12.171Z,19.13
2022-11-28T08:56:39.937Z,19.33
2022-11-28T08:59:07.832Z,17.85
2022-11-28T09:01:35.434Z,16.88
2022-11-28T09:04:04.604Z,17.90
2022-11-28T09:06:32.273Z,18.23
2022-11-28T09:09:01.829Z,19.05
2022-11-28T09:11:29.222Z,18.77
2022-11-28T09:13:57.179Z,19.60
2022-11-28T09:16:24.530Z,18.25
2022-11-28T09:18:52.480Z,19.33
2022-11-28T09:21:20.060Z,17.98
2022-11-28T09:23:48.286Z,20.13
2022-11-28T09:26:19.895Z,18.08
2022-11-28T09:28:48.742Z,16.98
2022-11-28T09:31:20.255Z,17.85
2022-11-28T09:33:49.644Z,16.65
2022-11-28T09:36:19.724Z,17.10
2022-11-28T09:38:47.895Z,17.23
2022-11-28T09:41:30.326Z,16.83
2022-11-28T09:44:03.502Z,18.00
2022-11-28T09:46:34.652Z,16.85
2022-11-28T09:49:15.125Z,15.95
2022-11-28T09:51:53.053Z,16.92
2022-11-28T09:54:38.527Z,18.40
2022-11-28T09:57:18.338Z,16.70
2022-11-28T09:59:46.863Z,18.10
2022-11-28T10:02:14.265Z,17.70
2022-11-28T10:04:58.028Z,18.45
2022-11-28T10:07:40.892Z,16.88
2022-11-28T10:10:27.724Z,16.60
2022-11-28T10:12:58.433Z,16.17
2022-11-28T10:15:41.197Z,14.93
2022-11-28T10:18:11.626Z,18.27
2022-11-28T10:20:46.022Z,15.88
2022-11-28T10:23:34.114Z,17.70
2022-11-28T10:26:43.000Z,16.02
2022-11-28T10:29:27.397Z,18.23
2022-11-28T10:32:01.991Z,17.73
2022-11-28T10:34:53.975Z,16.77
2022-11-28T10:37:31.497Z,16.10
2022-11-28T10:40:33.321Z,16.98
2022-11-28T10:43:12.705Z,17.60
2022-11-28T10:46:12.818Z,17.27
2022-11-28T10:48:50.029Z,16.63
2022-11-28T10:51:17.815Z,16.63
2022-11-28T10:53:59.531Z,15.98
2022-11-28T10:56:40.976Z,18.27
2022-11-28T10:59:22.668Z,15.82
2022-11-28T11:01:52.437Z,16.35
2022-11-28T11:04:24.304Z,16.67
2022-11-28T11:09:44.174Z,19.02
2022-11-28T11:12:24.049Z,22.02
2022-11-28T11:14:51.795Z,18.92
2022-11-28T11:17:38.173Z,15.02
2022-11-28T11:20:26.127Z,17.85
2022-11-28T11:23:00.921Z,19.73
2022-11-28T11:25:32.150Z,18.20
2022-11-28T11:28:03.706Z,17.55
2022-11-28T11:30:45.908Z,19.30
2022-11-28T11:33:18.121Z,19.00
2022-11-28T11:35:49.873Z,18.25
2022-11-28T11:38:23.640Z,17.65
2022-11-28T11:40:51.889Z,18.15
2022-11-28T11:43:36.073Z,18.45
2022-11-28T11:46:15.320Z,19.15
2022-11-28T11:48:47.382Z,21.27
2022-11-28T11:51:33.897Z,22.70
2022-11-28T11:54:19.201Z,19.35
2022-11-28T11:56:53.547Z,22.30
2022-11-28T11:59:49.592Z,19.25
2022-11-28T12:02:35.756Z,18.15
2022-11-28T12:05:10.461Z,16.90
2022-11-28T12:08:01.799Z,18.02
2022-11-28T12:10:47.233Z,18.20
2022-11-28T12:13:23.956Z,16.00
2022-11-28T12:16:20.774Z,17.70
2022-11-28T12:19:07.306Z,14.48
2022-11-28T12:21:53.235Z,14.88
2022-11-28T12:24:38.390Z,17.20
2022-11-28T12:27:25.725Z,17.38
2022-11-28T12:30:05.795Z,17.73
2022-11-28T12:33:00.870Z,17.83
2022-11-28T12:36:03.401Z,18.05
2022-11-28T12:38:41.595Z,17.23
2022-11-28T12:41:23.234Z,15.95
2022-11-28T12:44:13.726Z,18.05
2022-11-28T12:46:56.918Z,16.48
2022-11-28T12:49:38.245Z,18.33
2022-11-28T12:52:21.109Z,17.98
2022-11-28T12:55:17.152Z,17.13
2022-11-28T13:00:47.054Z,19.60
2022-11-28T13:03:42.020Z,19.35
2022-11-28T13:06:31.009Z,18.30
2022-11-28T13:09:27.180Z,18.58
2022-11-28T13:12:17.573Z,20.60
2022-11-28T13:14:53.221Z,20.08
2022-11-28T13:17:55.066Z,20.77
2022-11-28T13:20:42.986Z,20.13
2022-11-28T13:23:18.804Z,18.58
2022-11-28T13:26:11.404Z,21.65
2022-11-28T13:28:50.995Z,20.48
2022-11-28T13:31:25.793Z,20.33
2022-11-28T13:33:57.498Z,22.08
2022-11-28T13:40:03.880Z,21.35
2022-11-28T13:43:02.457Z,20.73
2022-11-28T13:51:36.315Z,24.13
2022-11-28T13:54:18.252Z,22.92
2022-11-28T13:57:06.620Z,22.17
2022-11-28T13:59:35.100Z,21.58
2022-11-28T14:02:05.621Z,22.10
2022-11-28T14:04:33.665Z,21.73
2022-11-28T14:07:07.495Z,21.95
2022-11-28T14:10:01.343Z,22.98
2022-11-28T14:13:05.454Z,22.98
2022-11-28T14:15:41.290Z,24.40
2022-11-28T14:21:34.435Z,23.63
2022-11-28T14:24:19.386Z,24.23
2022-11-28T14:26:56.735Z,24.77
2022-11-28T14:29:31.000Z,24.05
2022-11-28T14:32:28.611Z,23.10
2022-11-28T14:34:49.141Z,24.73
2022-11-28T14:37:19.866Z,26.30
2022-11-28T14:39:49.513Z,27.73
2022-11-28T14:42:43.854Z,24.73
2022-11-28T14:45:32.294Z,30.95
2022-11-28T14:48:21.442Z,31.15
2022-11-28T14:50:52.442Z,24.20
2022-11-28T14:53:44.852Z,24.60
2022-11-28T14:56:16.752Z,24.60
2022-11-28T14:58:49.996Z,26.20
2022-11-28T15:01:39.706Z,25.15
2022-11-28T15:04:22.637Z,27.20
2022-11-28T15:06:51.183Z,27.40
2022-11-28T15:09:31.107Z,27.48
2022-11-28T15:12:26.078Z,30.77
2022-11-28T15:14:58.253Z,26.63
2022-11-28T15:17:31.016Z,26.40
2022-11-28T15:20:04.291Z,26.05
2022-11-28T15:22:42.082Z,25.33
2022-11-28T15:25:29.735Z,26.52
2022-11-28T15:28:13.768Z,24.38
2022-11-28T15:30:51.252Z,25.52
2022-11-28T15:33:19.379Z,26.65
2022-11-28T15:36:02.502Z,25.33
2022-11-28T15:38:31.878Z,38.70
2022-11-28T15:41:01.426Z,29.52
2022-11-28T15:43:31.530Z,28.50
2022-11-28T15:46:02.858Z,25.27
2022-11-28T15:48:40.070Z,26.52
2022-11-28T15:51:22.100Z,23.90
2022-11-28T15:53:49.877Z,27.20
2022-11-28T15:56:17.805Z,27.38
2022-11-28T15:58:48.004Z,30.10
2022-11-28T16:01:27.515Z,29.20
2022-11-28T16:04:01.991Z,25.30
2022-11-28T16:06:35.767Z,29.35
2022-11-28T16:09:19.072Z,26.77
2022-11-28T16:11:51.374Z,29.63
2022-11-28T16:14:29.259Z,30.65
2022-11-28T16:22:04.440Z,31.38
2022-11-28T16:24:42.695Z,35.63
2022-11-28T16:27:30.312Z,35.55
2022-11-28T16:29:58.079Z,39.63
2022-11-28T16:32:46.012Z,39.83
2022-11-28T16:35:24.627Z,42.17
2022-11-28T16:37:53.615Z,48.05
2022-11-28T16:40:24.061Z,83.60
2022-11-28T16:43:00.645Z,87.18
2022-11-28T16:45:34.777Z,131.38
2022-11-28T16:48:10.206Z,88.22
2022-11-28T16:50:38.349Z,47.20
2022-11-28T16:53:06.470Z,47.40
2022-11-28T16:55:34.136Z,48.80
2022-11-28T16:58:17.926Z,46.22
2022-11-28T17:00:59.413Z,55.90
2022-11-28T17:03:52.282Z,65.30
2022-11-28T17:06:37.545Z,63.85
2022-11-28T17:09:07.966Z,73.65
2022-11-28T17:11:38.122Z,69.13
2022-11-28T17:14:11.718Z,65.68
2022-11-28T17:16:43.228Z,51.83
2022-11-28T17:19:11.469Z,74.60
2022-11-28T17:22:03.177Z,55.10
2022-11-28T17:24:34.957Z,42.15
2022-11-28T17:27:03.403Z,41.08
2022-11-28T17:29:31.418Z,42.30
2022-11-28T17:31:59.781Z,47.08
2022-11-28T17:34:32.632Z,50.70
2022-11-28T17:37:01.924Z,48.88
2022-11-28T17:39:30.200Z,49.20
2022-11-28T17:41:58.739Z,42.45
2022-11-28T17:44:31.866Z,49.72
2022-11-28T17:47:01.775Z,57.67
2022-11-28T17:49:33.682Z,52.00
2022-11-28T17:52:06.472Z,52.42
2022-11-28T17:54:35.252Z,55.30
2022-11-28T17:57:02.878Z,54.58
2022-11-28T17:59:31.032Z,55.47
2022-11-28T18:01:59.155Z,53.17
2022-11-28T18:04:26.986Z,50.83
2022-11-28T18:06:54.945Z,51.00
2022-11-28T18:09:22.721Z,50.40
2022-11-28T18:11:51.931Z,46.55
2022-11-28T18:14:20.183Z,48.97
2022-11-28T18:16:48.866Z,48.78
2022-11-28T18:19:17.190Z,48.90
2022-11-28T18:21:45.048Z,52.53
2022-11-28T18:24:14.592Z,51.58
2022-11-28T18:26:43.821Z,50.88
2022-11-28T18:29:13.174Z,49.80
2022-11-28T18:31:42.689Z,51.45
2022-11-28T18:34:11.315Z,51.78
2022-11-28T18:36:40.797Z,50.40
2022-11-28T18:39:13.782Z,48.85
2022-11-28T18:41:41.734Z,44.50
2022-11-28T18:44:11.675Z,45.85
2022-11-28T18:46:39.722Z,46.33
2022-11-28T18:49:08.317Z,41.22
2022-11-28T18:51:37.018Z,41.20
2022-11-28T18:54:06.276Z,41.50
2022-11-28T18:56:35.605Z,43.60
2022-11-28T18:59:04.378Z,41.03
2022-11-28T19:01:34.166Z,44.78
2022-11-28T19:04:07.556Z,46.45
2022-11-28T19:06:38.064Z,52.65
2022-11-28T19:09:09.647Z,62.00
2022-11-28T19:11:39.027Z,55.42
2022-11-28T19:14:10.804Z,52.67
2022-11-28T19:16:39.914Z,49.00
2022-11-28T19:19:08.310Z,44.55
2022-11-28T19:21:36.667Z,57.67
2022-11-28T19:24:08.283Z,62.05
2022-11-28T19:26:36.108Z,84.78
2022-11-28T19:29:06.041Z,98.90
2022-11-28T19:31:36.159Z,132.07
2022-11-28T19:34:10.650Z,143.48
2022-11-28T19:36:41.910Z,100.70
2022-11-28T19:39:18.035Z,112.38
2022-11-28T19:41:46.874Z,62.00
2022-11-28T19:44:15.962Z,51.95
2022-11-28T19:46:43.953Z,57.38
2022-11-28T19:49:18.861Z,49.95
2022-11-28T19:51:48.501Z,53.03
2022-11-28T19:54:22.042Z,44.53
2022-11-28T19:56:50.117Z,53.13
2022-11-28T19:59:19.344Z,56.63
2022-11-28T20:01:50.060Z,62.67
2022-11-28T20:04:17.986Z,34.28
2022-11-28T20:06:45.791Z,37.70
2022-11-28T20:09:14.489Z,38.15
2022-11-28T20:11:43.793Z,39.08
2022-11-28T20:14:17.547Z,37.75
2022-11-28T20:16:45.776Z,40.55
2022-11-28T20:19:15.139Z,40.25
2022-11-28T20:21:46.142Z,33.40
2022-11-28T20:24:15.421Z,29.98
2022-11-28T20:26:44.504Z,29.67
2022-11-28T20:29:15.859Z,25.38
2022-11-28T20:31:47.890Z,27.50
2022-11-28T20:34:19.306Z,26.05
2022-11-28T20:36:53.662Z,27.73
2022-11-28T20:39:21.907Z,26.40
2022-11-28T20:41:49.264Z,26.52
2022-11-28T20:44:20.534Z,26.17
2022-11-28T20:46:49.895Z,25.85
2022-11-28T20:49:18.392Z,27.92
2022-11-28T20:51:46.396Z,26.63
2022-11-28T20:54:15.023Z,26.23
2022-11-28T20:57:19.811Z,28.38
2022-11-28T21:02:00.357Z,26.35
2022-11-28T21:04:28.491Z,26.27
2022-11-28T21:06:56.121Z,26.60
2022-11-28T21:09:24.025Z,26.80
2022-11-28T21:11:57.355Z,27.38
2022-11-28T21:14:28.131Z,27.08
2022-11-28T21:16:56.824Z,26.02
2022-11-28T21:19:24.732Z,28.65
2022-11-28T21:21:52.392Z,28.00
2022-11-28T21:24:20.501Z,27.27
2022-11-28T21:26:53.380Z,24.90
2022-11-28T21:29:22.310Z,24.98
2022-11-28T21:31:50.712Z,23.70
2022-11-28T21:34:19.647Z,18.88
2022-11-28T21:36:47.547Z,23.20
2022-11-28T21:39:18.985Z,23.38
2022-11-28T21:41:47.055Z,22.60
2022-11-28T21:44:14.924Z,22.25
2022-11-28T21:46:43.398Z,23.10
2022-11-28T21:49:12.826Z,22.83
2022-11-28T21:51:41.139Z,26.15
2022-11-28T21:54:13.659Z,22.25
2022-11-28T21:56:42.050Z,24.50
2022-11-28T21:59:10.771Z,22.95
2022-11-28T22:01:41.194Z,20.60
2022-11-28T22:04:10.930Z,21.52
2022-11-28T22:06:39.214Z,21.33
2022-11-28T22:09:09.810Z,22.65
2022-11-28T22:11:40.219Z,22.67
2022-11-28T22:14:07.853Z,23.77
2022-11-28T22:16:36.245Z,25.60
2022-11-28T22:19:05.080Z,22.85
2022-11-28T22:21:53.820Z,24.40
2022-11-28T22:24:24.032Z,24.60
2022-11-28T22:26:51.643Z,24.48
2022-11-28T22:29:19.514Z,25.60
2022-11-28T22:31:47.962Z,22.65
2022-11-28T22:34:15.763Z,22.05
2022-11-28T22:36:43.623Z,21.17
2022-11-28T22:39:12.141Z,24.67
2022-11-28T22:41:40.127Z,24.42
2022-11-28T22:44:11.469Z,21.83
2022-11-28T22:46:39.485Z,21.52
2022-11-28T22:49:10.354Z,21.95
2022-11-28T22:51:39.970Z,21.35
2022-11-28T22:54:11.325Z,21.13
2022-11-28T22:56:40.973Z,21.48
2022-11-28T22:59:15.816Z,22.05
2022-11-28T23:01:43.934Z,24.20
2022-11-28T23:04:12.475Z,26.30
2022-11-28T23:06:40.141Z,28.38
2022-11-28T23:09:09.250Z,26.85
2022-11-28T23:11:39.634Z,26.80
2022-11-28T23:14:11.977Z,26.90
2022-11-28T23:16:42.556Z,25.42
2022-11-28T23:19:13.147Z,24.50
2022-11-28T23:21:42.627Z,23.63
2022-11-28T23:24:16.655Z,24.02
2022-11-28T23:26:45.188Z,27.10
2022-11-28T23:29:15.596Z,24.88
2022-11-28T23:31:44.174Z,24.30
2022-11-28T23:34:13.005Z,23.42
2022-11-28T23:36:43.228Z,23.20
2022-11-28T23:41:41.675Z,17.98
2022-11-28T23:44:12.027Z,19.83
2022-11-28T23:46:40.365Z,19.50
2022-11-28T23:49:10.645Z,19.45
2022-11-28T23:51:40.483Z,21.33
2022-11-28T23:54:10.325Z,19.10
2022-11-28T23:56:39.195Z,21.30
2022-11-28T23:59:09.246Z,23.92
